createdAt,value
2023-03-01T00:01:18.145Z,14.57
2023-03-01T00:05:20.978Z,12.75
2023-03-01T00:09:23.989Z,15.18
2023-03-01T00:13:28.193Z,15.40
2023-03-01T00:17:30.975Z,14.07
2023-03-01T00:21:34.789Z,15.50
2023-03-01T00:25:43.495Z,14.98
2023-03-01T00:29:47.787Z,14.88
2023-03-01T00:33:50.895Z,15.27
2023-03-01T00:37:58.561Z,14.98
2023-03-01T00:42:01.619Z,14.85
2023-03-01T00:46:08.098Z,13.68
2023-03-01T00:54:14.312Z,13.63
2023-03-01T00:58:17.129Z,15.77
2023-03-01T01:02:22.054Z,13.25
2023-03-01T01:06:26.810Z,14.85
2023-03-01T01:10:29.710Z,15.77
2023-03-01T01:14:32.575Z,14.98
2023-03-01T01:18:36.963Z,13.52
2023-03-01T01:22:39.825Z,14.60
2023-03-01T01:26:43.450Z,14.68
2023-03-01T01:30:46.383Z,14.50
2023-03-01T01:34:50.856Z,13.40
2023-03-01T01:38:54.023Z,14.88
2023-03-01T01:42:56.858Z,12.57
2023-03-01T01:47:02.596Z,14.68
2023-03-01T01:51:06.987Z,15.45
2023-03-01T01:55:14.024Z,15.07
2023-03-01T01:59:17.259Z,14.93
2023-03-01T02:03:29.770Z,15.10
2023-03-01T02:07:35.334Z,15.80
2023-03-01T02:11:38.960Z,13.13
2023-03-01T02:15:45.008Z,15.73
2023-03-01T02:20:01.879Z,12.40
2023-03-01T02:24:25.808Z,11.95
2023-03-01T02:28:33.660Z,14.90
2023-03-01T02:32:37.064Z,15.55
2023-03-01T02:36:42.936Z,14.95
2023-03-01T02:44:52.524Z,14.70
2023-03-01T02:48:57.356Z,16.10
2023-03-01T02:53:04.966Z,15.25
2023-03-01T02:57:08.600Z,14.77
2023-03-01T03:01:14.448Z,14.88
2023-03-01T03:05:20.257Z,15.07
2023-03-01T03:09:23.408Z,14.93
2023-03-01T03:13:29.346Z,15.27
2023-03-01T03:17:33.733Z,15.20
2023-03-01T03:21:36.808Z,14.52
2023-03-01T03:25:39.749Z,14.75
2023-03-01T03:29:42.565Z,14.55
2023-03-01T03:33:46.661Z,15.38
2023-03-01T03:38:06.964Z,14.57
2023-03-01T03:42:11.030Z,15.70
2023-03-01T03:46:14.514Z,13.85
2023-03-01T03:50:19.866Z,13.85
2023-03-01T03:54:22.751Z,13.67
2023-03-01T03:58:26.416Z,14.50
2023-03-01T04:02:29.313Z,15.10
2023-03-01T04:06:33.934Z,15.50
2023-03-01T04:10:38.380Z,14.32
2023-03-01T04:14:41.253Z,14.82
2023-03-01T04:18:44.097Z,15.30
2023-03-01T04:22:48.293Z,15.70
2023-03-01T04:26:51.121Z,14.95
2023-03-01T04:30:55.188Z,15.93
2023-03-01T04:34:57.941Z,16.35
2023-03-01T04:39:13.006Z,14.65
2023-03-01T04:43:16.406Z,14.23
2023-03-01T04:47:19.289Z,16.05
2023-03-01T04:51:22.115Z,17.90
2023-03-01T04:55:26.808Z,16.42
2023-03-01T04:59:30.328Z,15.45
2023-03-01T05:03:33.125Z,16.30
2023-03-01T05:07:35.923Z,15.75
2023-03-01T05:11:40.081Z,16.30
2023-03-01T05:15:42.992Z,16.42
2023-03-01T05:19:45.905Z,14.85
2023-03-01T05:23:48.981Z,15.40
2023-03-01T05:27:53.151Z,16.60
2023-03-01T05:31:57.278Z,17.52
2023-03-01T05:36:02.328Z,14.52
2023-03-01T05:40:06.445Z,15.43
2023-03-01T05:44:12.639Z,15.75
2023-03-01T05:52:18.413Z,16.13
2023-03-01T05:56:23.251Z,15.13
2023-03-01T06:00:29.098Z,16.83
2023-03-01T06:04:31.904Z,15.27
2023-03-01T06:08:34.731Z,13.75
2023-03-01T06:12:39.131Z,15.68
2023-03-01T06:16:43.325Z,14.20
2023-03-01T06:20:46.180Z,16.58
2023-03-01T06:24:49.040Z,16.08
2023-03-01T06:28:51.872Z,16.25
2023-03-01T06:33:02.120Z,16.00
2023-03-01T06:37:06.109Z,15.13
2023-03-01T06:41:09.165Z,17.02
2023-03-01T06:45:12.648Z,13.82
2023-03-01T06:49:18.653Z,14.80
2023-03-01T06:53:21.465Z,14.70
2023-03-01T06:57:24.288Z,15.80
2023-03-01T07:01:27.510Z,16.88
2023-03-01T07:05:32.341Z,17.08
2023-03-01T07:09:35.391Z,17.27
2023-03-01T07:13:38.245Z,14.93
2023-03-01T07:17:41.142Z,15.20
2023-03-01T07:21:45.246Z,15.82
2023-03-01T07:25:53.711Z,18.10
2023-03-01T07:29:56.451Z,16.10
2023-03-01T07:33:59.728Z,16.08
2023-03-01T07:38:03.974Z,16.38
2023-03-01T07:42:06.766Z,16.08
2023-03-01T07:46:09.873Z,17.20
2023-03-01T07:50:14.411Z,17.02
2023-03-01T07:54:19.048Z,13.77
2023-03-01T07:58:21.918Z,15.95
2023-03-01T08:02:24.781Z,15.23
2023-03-01T08:06:27.679Z,15.07
2023-03-01T08:10:31.884Z,16.38
2023-03-01T08:14:34.790Z,16.55
2023-03-01T08:18:37.952Z,16.05
2023-03-01T08:22:40.889Z,15.05
2023-03-01T08:26:45.024Z,16.63
2023-03-01T08:30:47.842Z,17.38
2023-03-01T08:34:50.892Z,15.18
2023-03-01T08:38:53.954Z,16.17
2023-03-01T08:42:58.673Z,16.48
2023-03-01T08:47:03.187Z,13.77
2023-03-01T08:51:10.639Z,17.17
2023-03-01T08:55:13.472Z,15.63
2023-03-01T08:59:19.113Z,16.30
2023-03-01T09:03:21.954Z,16.80
2023-03-01T09:07:29.136Z,17.42
2023-03-01T09:11:32.652Z,16.13
2023-03-01T09:15:38.753Z,15.48
2023-03-01T09:19:41.808Z,17.00
2023-03-01T09:23:46.764Z,15.70
2023-03-01T09:27:49.551Z,17.15
2023-03-01T09:31:55.989Z,15.80
2023-03-01T09:35:59.480Z,15.88
2023-03-01T09:40:02.442Z,17.30
2023-03-01T09:44:12.701Z,16.45
2023-03-01T09:48:22.995Z,16.77
2023-03-01T09:52:31.532Z,17.00
2023-03-01T09:56:39.778Z,15.60
2023-03-01T10:00:46.742Z,15.57
2023-03-01T10:04:51.934Z,18.00
2023-03-01T10:08:58.412Z,16.67
2023-03-01T10:17:07.353Z,17.88
2023-03-01T10:21:18.103Z,17.98
2023-03-01T10:25:33.031Z,16.67
2023-03-01T10:29:43.239Z,18.02
2023-03-01T10:33:46.113Z,17.35
2023-03-01T10:38:04.356Z,17.92
2023-03-01T10:42:20.916Z,17.63
2023-03-01T10:46:26.589Z,16.08
2023-03-01T10:50:29.467Z,16.58
2023-03-01T10:54:34.766Z,16.73
2023-03-01T10:58:39.398Z,17.38
2023-03-01T11:02:42.225Z,15.70
2023-03-01T11:06:45.689Z,16.88
2023-03-01T11:10:49.862Z,16.20
2023-03-01T11:14:55.699Z,16.58
2023-03-01T11:19:01.063Z,15.82
2023-03-01T11:23:08.556Z,16.15
2023-03-01T11:27:20.885Z,16.65
2023-03-01T11:31:26.336Z,14.30
2023-03-01T11:35:30.792Z,14.70
2023-03-01T11:39:40.248Z,14.73
2023-03-01T11:43:53.512Z,14.65
2023-03-01T11:48:07.821Z,14.68
2023-03-01T11:52:16.893Z,14.68
2023-03-01T11:56:29.514Z,15.77
2023-03-01T12:00:46.526Z,14.95
2023-03-01T12:05:22.001Z,14.48
2023-03-01T12:09:58.006Z,16.33
2023-03-01T12:14:15.739Z,15.05
2023-03-01T12:18:50.046Z,16.48
2023-03-01T12:23:20.664Z,16.08
2023-03-01T12:27:44.951Z,16.20
2023-03-01T12:32:14.463Z,16.17
2023-03-01T12:36:43.719Z,16.10
2023-03-01T12:41:07.831Z,16.10
2023-03-01T12:50:42.621Z,16.88
2023-03-01T12:54:48.524Z,16.23
2023-03-01T12:59:01.715Z,17.45
2023-03-01T13:03:19.230Z,17.52
2023-03-01T13:07:31.734Z,16.83
2023-03-01T13:11:36.238Z,16.02
2023-03-01T13:15:40.490Z,16.30
2023-03-01T13:19:58.816Z,17.25
2023-03-01T13:24:01.894Z,16.85
2023-03-01T13:28:41.639Z,16.38
2023-03-01T13:32:45.363Z,18.40
2023-03-01T13:36:50.346Z,17.80
2023-03-01T13:41:01.633Z,16.88
2023-03-01T13:45:16.106Z,16.45
2023-03-01T13:49:22.154Z,17.77
2023-03-01T13:53:28.412Z,17.10
2023-03-01T13:57:35.419Z,16.52
2023-03-01T14:06:17.302Z,18.77
2023-03-01T14:10:21.266Z,18.10
2023-03-01T14:14:44.227Z,17.20
2023-03-01T14:18:57.067Z,18.98
2023-03-01T14:23:04.270Z,16.67
2023-03-01T14:27:13.053Z,18.13
2023-03-01T14:31:43.890Z,16.83
2023-03-01T14:35:57.503Z,17.23
2023-03-01T14:40:05.043Z,17.23
2023-03-01T14:44:14.421Z,16.90
2023-03-01T14:48:17.496Z,17.23
2023-03-01T14:52:23.496Z,16.73
2023-03-01T14:56:27.637Z,17.33
2023-03-01T15:00:32.442Z,17.10
2023-03-01T15:04:35.653Z,16.50
2023-03-01T15:08:42.077Z,15.57
2023-03-01T15:12:46.193Z,17.50
2023-03-01T15:16:50.326Z,17.20
2023-03-01T15:20:53.934Z,16.05
2023-03-01T15:24:56.993Z,17.52
2023-03-01T15:29:02.718Z,15.25
2023-03-01T15:33:38.862Z,14.45
2023-03-01T15:37:49.518Z,15.80
2023-03-01T15:41:52.280Z,16.55
2023-03-01T15:45:59.637Z,15.38
2023-03-01T15:50:03.355Z,16.02
2023-03-01T15:54:09.140Z,15.35
2023-03-01T15:58:15.513Z,13.82
2023-03-01T16:02:22.017Z,15.40
2023-03-01T16:06:24.917Z,15.55
2023-03-01T16:10:27.903Z,14.48
2023-03-01T16:14:30.759Z,14.60
2023-03-01T16:18:34.899Z,15.27
2023-03-01T16:22:37.759Z,14.18
2023-03-01T16:26:40.632Z,14.43
2023-03-01T16:30:49.247Z,15.18
2023-03-01T16:34:53.792Z,14.98
2023-03-01T16:38:57.108Z,15.10
2023-03-01T16:43:02.105Z,14.90
2023-03-01T16:47:04.981Z,15.65
2023-03-01T16:51:10.041Z,16.17
2023-03-01T16:55:13.284Z,16.40
2023-03-01T16:59:16.078Z,15.07
2023-03-01T17:03:19.043Z,15.93
2023-03-01T17:07:23.627Z,15.48
2023-03-01T17:11:26.731Z,15.75
2023-03-01T17:15:29.493Z,15.15
2023-03-01T17:19:32.784Z,16.98
2023-03-01T17:23:39.070Z,15.93
2023-03-01T17:27:42.411Z,19.48
2023-03-01T17:31:45.578Z,20.02
2023-03-01T17:35:48.764Z,21.45
2023-03-01T17:39:52.977Z,20.27
2023-03-01T17:43:55.820Z,22.35
2023-03-01T17:47:58.654Z,22.30
2023-03-01T17:52:01.658Z,23.65
2023-03-01T17:56:08.147Z,25.67
2023-03-01T18:00:13.928Z,24.98
2023-03-01T18:04:18.467Z,25.10
2023-03-01T18:08:21.306Z,24.38
2023-03-01T18:12:25.525Z,22.98
2023-03-01T18:16:31.882Z,21.55
2023-03-01T18:20:35.202Z,24.17
2023-03-01T18:24:38.674Z,27.02
2023-03-01T18:28:42.868Z,27.30
2023-03-01T18:32:45.979Z,28.55
2023-03-01T18:37:08.174Z,28.88
2023-03-01T18:41:11.455Z,27.65
2023-03-01T18:45:17.065Z,30.55
2023-03-01T18:49:20.403Z,44.40
2023-03-01T18:53:23.185Z,40.05
2023-03-01T18:57:26.071Z,30.73
2023-03-01T19:01:35.429Z,28.00
2023-03-01T19:05:42.063Z,25.85
2023-03-01T19:09:44.936Z,28.83
2023-03-01T19:13:51.731Z,27.50
2023-03-01T19:17:57.278Z,25.90
2023-03-01T19:22:05.985Z,26.90
2023-03-01T19:26:11.867Z,28.08
2023-03-01T19:30:15.206Z,27.73
2023-03-01T19:34:26.296Z,28.30
2023-03-01T19:38:30.571Z,29.15
2023-03-01T19:42:33.320Z,30.05
2023-03-01T19:46:36.552Z,28.58
2023-03-01T19:50:40.832Z,31.13
2023-03-01T19:54:43.641Z,29.55
2023-03-01T19:58:47.570Z,28.30
2023-03-01T20:02:50.431Z,27.58
2023-03-01T20:06:54.620Z,27.42
2023-03-01T20:11:03.274Z,26.20
2023-03-01T20:15:07.003Z,26.75
2023-03-01T20:19:09.812Z,25.50
2023-03-01T20:23:13.933Z,26.52
2023-03-01T20:27:16.717Z,28.65
2023-03-01T20:31:21.286Z,29.70
2023-03-01T20:35:24.285Z,29.77
2023-03-01T20:39:28.426Z,30.20
2023-03-01T20:43:31.614Z,32.78
2023-03-01T20:47:34.434Z,31.48
2023-03-01T20:51:37.312Z,30.25
2023-03-01T20:55:41.516Z,29.48
2023-03-01T20:59:44.298Z,29.77
2023-03-01T21:03:47.115Z,29.65
2023-03-01T21:07:51.244Z,28.60
2023-03-01T21:11:55.382Z,24.15
2023-03-01T21:16:00.975Z,20.95
2023-03-01T21:20:04.533Z,18.25
2023-03-01T21:24:10.132Z,16.77
2023-03-01T21:28:14.400Z,17.30
2023-03-01T21:32:17.309Z,16.65
2023-03-01T21:36:21.521Z,16.27
2023-03-01T21:40:24.319Z,16.17
2023-03-01T21:44:30.209Z,16.58
2023-03-01T21:48:33.788Z,15.77
2023-03-01T21:52:36.585Z,15.93
2023-03-01T21:56:39.934Z,16.58
2023-03-01T22:00:44.100Z,14.82
2023-03-01T22:04:46.868Z,16.08
2023-03-01T22:08:51.434Z,16.75
2023-03-01T22:12:54.588Z,16.10
2023-03-01T22:16:58.936Z,14.65
2023-03-01T22:21:05.672Z,16.40
2023-03-01T22:25:09.532Z,16.65
2023-03-01T22:29:14.516Z,15.93
2023-03-01T22:33:18.937Z,16.90
2023-03-01T22:37:21.706Z,15.55
2023-03-01T22:41:24.469Z,16.83
2023-03-01T22:45:29.961Z,16.33
2023-03-01T22:49:34.380Z,16.13
2023-03-01T22:53:37.137Z,17.52
2023-03-01T22:57:40.081Z,15.35
2023-03-01T23:01:46.488Z,16.45
2023-03-01T23:05:51.637Z,16.45
2023-03-01T23:09:54.429Z,16.52
2023-03-01T23:13:59.037Z,15.30
2023-03-01T23:18:01.855Z,16.75
2023-03-01T23:22:06.016Z,16.02
2023-03-01T23:26:09.087Z,17.45
2023-03-01T23:30:12.667Z,15.48
2023-03-01T23:34:15.721Z,15.40
2023-03-01T23:38:20.932Z,15.60
2023-03-01T23:42:23.708Z,15.55
2023-03-01T23:46:28.371Z,16.90
2023-03-01T23:50:31.149Z,15.93
2023-03-01T23:54:35.957Z,16.48
2023-03-01T23:58:38.742Z,16.60
